Time;durP1;ratioP1;P1;durP2;ratioP2;P2;SDS_P1;SDS_P2;PMS_P1;PMS_P2;Temp;Humidity;BMP_temperature;BMP_pressure;BME280_temperature;BME280_humidity;BME280_pressure;Samples;Min_cycle;Max_cycle;Signal;HPM_P1;HPM_P2
2021/12/28 00:01:12;;;;;;;29.20;13.10;;;;;;;-2.89;72.84;98572.70;103092;1319;112415;-69
2021/12/28 00:03:45;;;;;;;27.40;13.30;;;;;;;-2.99;72.63;98570.70;102952;1318;99260;-69
2021/12/28 00:06:15;;;;;;;27.40;12.70;;;;;;;-3.01;72.80;98569.55;103102;1322;108530;-69
2021/12/28 00:08:48;;;;;;;29.40;12.60;;;;;;;-3.01;73.09;98573.00;102961;1322;99465;-70
2021/12/28 00:11:17;;;;;;;27.50;13.10;;;;;;;-3.01;73.06;98570.74;103134;1320;99358;-69
2021/12/28 00:13:48;;;;;;;28.80;13.20;;;;;;;-3.04;72.87;98570.65;102968;1323;113853;-69
2021/12/28 00:18:48;;;;;;;32.50;14.00;;;;;;;-3.11;72.81;98569.81;103036;1316;108475;-69
2021/12/28 00:21:15;;;;;;;35.20;17.10;;;;;;;-3.07;72.92;98575.77;103107;1316;99339;-69
2021/12/28 00:23:45;;;;;;;33.30;15.70;;;;;;;-3.00;73.00;98576.45;103000;1317;99351;-68
2021/12/28 00:26:17;;;;;;;27.50;12.80;;;;;;;-2.94;72.99;98574.76;102906;1318;113493;-68
2021/12/28 00:28:49;;;;;;;30.00;13.00;;;;;;;-2.94;72.96;98575.43;102864;1318;99236;-68
2021/12/28 00:31:19;;;;;;;29.00;13.10;;;;;;;-3.01;72.68;98574.73;103059;1316;108530;-68
2021/12/28 00:33:46;;;;;;;27.90;13.00;;;;;;;-3.04;72.76;98582.80;102987;1324;99402;-71
2021/12/28 00:36:18;;;;;;;24.70;12.10;;;;;;;-3.03;72.76;98580.16;103130;1316;99155;-70
2021/12/28 00:38:46;;;;;;;28.80;13.40;;;;;;;-3.08;72.81;98586.73;103019;1316;113874;-70
2021/12/28 00:41:17;;;;;;;28.00;12.60;;;;;;;-3.07;72.71;98589.13;102991;1322;99394;-69
2021/12/28 00:43:44;;;;;;;26.00;12.20;;;;;;;-3.06;72.71;98593.78;103105;1322;107823;-68
2021/12/28 00:46:13;;;;;;;27.80;13.00;;;;;;;-3.10;72.89;98593.54;103119;1316;100877;-69
2021/12/28 00:48:42;;;;;;;29.00;13.30;;;;;;;-3.12;72.95;98592.90;103089;1320;98134;-71
2021/12/28 00:51:10;;;;;;;25.20;10.90;;;;;;;-3.14;73.03;98589.63;103087;1320;112878;-70
2021/12/28 00:53:38;;;;;;;32.00;14.50;;;;;;;-3.18;72.76;98591.63;103106;1320;99342;-68
2021/12/28 00:56:09;;;;;;;28.30;12.90;;;;;;;-3.20;72.78;98593.26;102956;1324;106834;-69
2021/12/28 00:58:39;;;;;;;27.00;11.20;;;;;;;-3.19;72.76;98594.77;103077;1324;99258;-71
2021/12/28 01:01:07;;;;;;;24.50;11.10;;;;;;;-3.20;72.71;98600.19;103122;1322;96623;-69
2021/12/28 01:03:37;;;;;;;24.90;10.90;;;;;;;-3.29;72.72;98601.27;103043;1316;113329;-69
2021/12/28 01:06:06;;;;;;;27.00;12.20;;;;;;;-3.22;73.07;98599.70;103005;1316;99676;-69
2021/12/28 01:08:34;;;;;;;24.10;11.20;;;;;;;-3.10;72.96;98595.61;103091;1316;108189;-69
2021/12/28 01:11:02;;;;;;;25.30;11.10;;;;;;;-3.05;72.92;98597.55;103000;1315;99261;-71
2021/12/28 01:13:31;;;;;;;25.10;11.40;;;;;;;-3.14;72.51;98595.54;102961;1316;99241;-70
2021/12/28 01:15:59;;;;;;;24.80;12.00;;;;;;;-3.17;72.84;98596.11;103010;1316;112910;-69
2021/12/28 01:18:28;;;;;;;27.70;13.20;;;;;;;-3.13;72.89;98594.46;102947;1317;99245;-69
2021/12/28 01:20:56;;;;;;;26.80;12.50;;;;;;;-3.12;72.85;98595.33;102939;1316;108435;-69
2021/12/28 01:23:26;;;;;;;26.90;11.80;;;;;;;-3.21;72.71;98595.52;102975;1316;99352;-68
2021/12/28 01:25:55;;;;;;;27.40;11.70;;;;;;;-3.22;72.83;98594.34;103029;1320;99255;-68
2021/12/28 01:28:24;;;;;;;22.20;10.10;;;;;;;-3.21;72.57;98593.11;102848;1322;113929;-68
2021/12/28 01:30:52;;;;;;;26.00;11.50;;;;;;;-3.18;72.59;98590.42;102912;1320;99316;-69
2021/12/28 01:33:21;;;;;;;24.60;10.30;;;;;;;-3.19;72.86;98591.83;102996;1317;108415;-69
2021/12/28 01:35:50;;;;;;;27.30;10.90;;;;;;;-3.30;72.51;98591.92;103013;1317;97913;-68
2021/12/28 01:38:20;;;;;;;22.30;8.90;;;;;;;-3.39;72.74;98589.38;102986;1317;99249;-68
2021/12/28 01:40:48;;;;;;;27.30;11.10;;;;;;;-3.42;72.62;98590.47;103023;1316;113307;-68
2021/12/28 01:43:20;;;;;;;25.50;11.40;;;;;;;-3.50;72.93;98583.05;103040;1316;97751;-68
2021/12/28 01:46:00;;;;;;;27.90;11.20;;;;;;;-3.52;72.78;98583.77;103001;1317;107857;-68
2021/12/28 01:48:34;;;;;;;27.00;12.30;;;;;;;-3.58;72.90;98580.96;102918;1321;99740;-69
2021/12/28 01:51:09;;;;;;;24.60;11.20;;;;;;;-3.49;72.78;98576.26;102967;1321;99343;-69
2021/12/28 01:53:39;;;;;;;25.10;11.00;;;;;;;-3.42;72.78;98570.89;103016;1316;113461;-68
2021/12/28 01:56:24;;;;;;;26.70;11.60;;;;;;;-3.31;72.94;98562.83;102999;1322;99379;-70
2021/12/28 01:58:56;;;;;;;25.40;11.70;;;;;;;-3.20;72.91;98563.25;103011;1316;108607;-69
2021/12/28 02:01:26;;;;;;;23.50;10.60;;;;;;;-3.17;72.81;98565.61;103002;1316;99351;-68
2021/12/28 02:03:55;;;;;;;24.20;11.10;;;;;;;-3.23;72.94;98563.48;103024;1316;97077;-69
2021/12/28 02:06:26;;;;;;;25.40;11.50;;;;;;;-3.26;72.79;98562.19;102697;1318;113230;-69
2021/12/28 02:08:56;;;;;;;27.00;10.90;;;;;;;-3.22;72.97;98559.64;102972;1316;99457;-69
2021/12/28 02:11:24;;;;;;;22.50;10.10;;;;;;;-3.19;72.67;98558.21;102944;1316;107866;-70
2021/12/28 02:13:52;;;;;;;26.90;11.80;;;;;;;-3.28;72.52;98555.46;102978;1317;97753;-69
2021/12/28 02:16:21;;;;;;;22.40;10.30;;;;;;;-3.30;72.91;98556.37;102995;1316;99232;-70
2021/12/28 02:18:50;;;;;;;22.60;10.40;;;;;;;-3.32;72.69;98556.27;102924;1322;113416;-69
2021/12/28 02:21:19;;;;;;;23.80;10.70;;;;;;;-3.35;72.75;98559.80;103019;1316;99328;-70
2021/12/28 02:23:47;;;;;;;24.70;9.90;;;;;;;-3.30;72.80;98559.66;103000;1317;108377;-71
2021/12/28 02:26:15;;;;;;;25.40;10.50;;;;;;;-3.20;72.99;98566.02;102881;1316;97863;-69
2021/12/28 02:28:43;;;;;;;25.50;11.60;;;;;;;-3.13;72.98;98564.10;102950;1318;99227;-70
2021/12/28 02:31:11;;;;;;;25.90;10.20;;;;;;;-3.14;72.69;98564.48;102979;1316;111544;-70
2021/12/28 02:33:42;;;;;;;23.00;9.80;;;;;;;-3.10;72.84;98559.88;103005;1316;99272;-69
2021/12/28 02:36:10;;;;;;;23.30;11.30;;;;;;;-3.09;72.70;98553.97;102925;1316;107824;-70
2021/12/28 02:38:39;;;;;;;19.90;9.00;;;;;;;-3.14;72.95;98549.58;103048;1316;99384;-70
2021/12/28 02:41:09;;;;;;;23.00;9.70;;;;;;;-3.16;72.72;98546.13;102962;1317;97303;-69
2021/12/28 02:43:40;;;;;;;24.10;10.50;;;;;;;-3.15;72.88;98546.46;102940;1316;113317;-70
2021/12/28 02:46:09;;;;;;;22.00;9.70;;;;;;;-3.15;72.79;98546.46;102965;1322;99284;-68
2021/12/28 02:48:38;;;;;;;22.20;9.20;;;;;;;-3.18;72.64;98550.35;103047;1317;109216;-69
2021/12/28 02:51:18;;;;;;;23.00;9.50;;;;;;;-3.24;72.62;98548.41;99969;1317;4180921;-69
2021/12/28 02:53:46;;;;;;;23.30;10.30;;;;;;;-3.31;72.66;98553.11;103005;1325;99384;-70
2021/12/28 02:56:18;;;;;;;24.20;10.00;;;;;;;-3.36;72.63;98550.45;103043;1324;112794;-70
2021/12/28 02:58:52;;;;;;;21.30;9.00;;;;;;;-3.34;72.88;98545.02;103156;1317;97807;-70
2021/12/28 03:01:22;;;;;;;24.20;10.80;;;;;;;-3.28;72.64;98539.16;102963;1322;108338;-70
2021/12/28 03:03:55;;;;;;;20.20;8.70;;;;;;;-3.19;72.81;98540.69;102872;1317;97794;-71
2021/12/28 03:06:24;;;;;;;23.60;10.80;;;;;;;-3.17;72.98;98533.69;102888;1318;99308;-70
2021/12/28 03:08:59;;;;;;;23.70;10.10;;;;;;;-3.12;72.87;98535.98;102915;1316;112540;-71
2021/12/28 03:11:29;;;;;;;21.20;9.40;;;;;;;-3.14;72.69;98531.88;102992;1322;99313;-70
2021/12/28 03:14:00;;;;;;;24.80;10.60;;;;;;;-3.22;72.58;98529.83;103038;1317;107915;-70
2021/12/28 03:16:31;;;;;;;23.60;9.70;;;;;;;-3.29;72.63;98527.91;103044;1317;99384;-69
2021/12/28 03:19:00;;;;;;;22.20;9.70;;;;;;;-3.35;72.88;98525.80;103080;1317;99275;-70
2021/12/28 03:21:29;;;;;;;20.30;9.70;;;;;;;-3.35;72.81;98526.33;102884;1325;112816;-69
2021/12/28 03:23:58;;;;;;;23.50;10.10;;;;;;;-3.37;72.74;98524.12;102913;1319;99381;-70
2021/12/28 03:26:26;;;;;;;22.70;10.70;;;;;;;-3.39;72.77;98521.73;103027;1319;107765;-69
2021/12/28 03:28:54;;;;;;;22.60;9.90;;;;;;;-3.33;72.89;98517.45;103039;1321;99218;-69
2021/12/28 03:31:22;;;;;;;22.70;9.30;;;;;;;-3.23;72.75;98512.17;102883;1317;97722;-70
2021/12/28 03:33:55;;;;;;;23.80;10.10;;;;;;;-3.19;72.76;98514.14;103008;1319;113417;-70
2021/12/28 03:36:28;;;;;;;23.50;10.10;;;;;;;-3.13;72.80;98513.64;103079;1316;99465;-69
2021/12/28 03:38:58;;;;;;;24.00;9.40;;;;;;;-3.08;72.65;98520.46;102979;1322;107904;-70
2021/12/28 03:41:29;;;;;;;23.10;10.30;;;;;;;-3.06;72.75;98518.31;103002;1322;99352;-70
2021/12/28 03:43:59;;;;;;;23.70;9.30;;;;;;;-3.01;72.88;98521.98;103024;1316;97880;-70
2021/12/28 03:46:30;;;;;;;22.10;9.60;;;;;;;-3.00;72.84;98517.28;103068;1322;114265;-69
2021/12/28 03:48:59;;;;;;;22.30;10.60;;;;;;;-2.98;72.92;98507.70;103078;1318;99237;-69
2021/12/28 03:51:27;;;;;;;21.50;9.50;;;;;;;-2.93;72.84;98503.93;103011;1317;108452;-69
2021/12/28 03:53:55;;;;;;;23.60;9.90;;;;;;;-2.91;72.98;98504.06;103031;1320;96629;-69
2021/12/28 03:56:24;;;;;;;22.90;9.30;;;;;;;-2.93;73.23;98505.66;103043;1317;96529;-69
2021/12/28 03:58:52;;;;;;;19.40;7.50;;;;;;;-2.96;72.87;98504.54;102860;1322;113273;-68
2021/12/28 04:01:24;;;;;;;20.50;8.30;;;;;;;-3.10;72.73;98508.73;102929;1317;96611;-70
2021/12/28 04:03:54;;;;;;;23.10;9.30;;;;;;;-3.26;72.17;98505.48;103012;1316;108389;-70
2021/12/28 04:06:24;;;;;;;24.10;8.90;;;;;;;-3.28;72.39;98501.88;103066;1317;99154;-70
2021/12/28 04:08:52;;;;;;;22.00;8.80;;;;;;;-3.34;72.34;98501.33;103030;1322;99401;-71
2021/12/28 04:13:48;;;;;;;21.80;9.10;;;;;;;-3.32;72.35;98512.74;103063;1317;99265;-70
2021/12/28 04:16:19;;;;;;;24.30;10.10;;;;;;;-3.30;72.62;98508.34;103057;1315;107893;-72
2021/12/28 04:18:47;;;;;;;19.50;8.20;;;;;;;-3.26;72.58;98504.96;103084;1316;99328;-70
2021/12/28 04:21:17;;;;;;;23.20;9.70;;;;;;;-3.24;72.69;98503.34;103030;1316;99228;-69
2021/12/28 04:23:47;;;;;;;23.80;9.40;;;;;;;-3.20;72.89;98504.95;103043;1320;113544;-70
2021/12/28 04:26:17;;;;;;;20.90;8.70;;;;;;;-3.14;72.61;98505.34;103070;1317;97686;-69
2021/12/28 04:28:45;;;;;;;25.40;9.90;;;;;;;-3.26;72.41;98505.81;103075;1316;109212;-71
2021/12/28 04:31:13;;;;;;;27.60;11.50;;;;;;;-3.41;72.50;98506.73;102979;1319;99256;-71
2021/12/28 04:33:42;;;;;;;21.30;8.60;;;;;;;-3.46;72.55;98502.66;102953;1322;99310;-69
2021/12/28 04:36:14;;;;;;;21.90;8.70;;;;;;;-3.51;72.31;98500.54;102903;1321;113654;-69
2021/12/28 04:38:45;;;;;;;28.40;10.60;;;;;;;-3.59;72.37;98505.77;102978;1317;99868;-70
2021/12/28 04:41:15;;;;;;;22.00;8.90;;;;;;;-3.53;72.63;98504.75;102952;1321;107865;-68
2021/12/28 04:43:45;;;;;;;26.80;10.80;;;;;;;-3.43;72.47;98505.89;103049;1317;99381;-70
2021/12/28 04:46:15;;;;;;;23.20;8.90;;;;;;;-3.40;72.44;98507.56;102831;1322;99288;-69
2021/12/28 04:48:44;;;;;;;29.40;11.50;;;;;;;-3.43;72.47;98508.14;102966;1322;112791;-69
2021/12/28 04:51:12;;;;;;;23.70;9.30;;;;;;;-3.42;72.43;98506.38;103047;1320;99259;-69
2021/12/28 04:53:40;;;;;;;24.80;10.10;;;;;;;-3.47;72.40;98507.21;102882;1316;108971;-70
2021/12/28 04:56:08;;;;;;;26.60;11.00;;;;;;;-3.52;72.52;98508.38;102926;1322;99332;-69
2021/12/28 04:58:37;;;;;;;24.10;10.30;;;;;;;-3.55;72.55;98507.56;102938;1318;96653;-70
2021/12/28 05:01:04;;;;;;;25.10;10.20;;;;;;;-3.61;72.33;98505.63;103006;1317;113848;-69
2021/12/28 05:03:33;;;;;;;24.80;10.10;;;;;;;-3.59;72.60;98504.35;103071;1316;99352;-69
2021/12/28 05:06:02;;;;;;;23.10;9.30;;;;;;;-3.53;72.51;98505.10;103021;1316;108475;-71
2021/12/28 05:08:31;;;;;;;22.40;8.60;;;;;;;-3.45;72.40;98504.02;103059;1322;96650;-71
2021/12/28 05:10:59;;;;;;;22.70;10.30;;;;;;;-3.45;72.47;98508.72;103101;1322;99285;-69
2021/12/28 05:13:27;;;;;;;22.50;9.50;;;;;;;-3.58;72.31;98511.80;102984;1319;112973;-70
2021/12/28 05:15:55;;;;;;;21.00;8.20;;;;;;;-3.68;72.30;98519.65;103014;1322;97674;-70
2021/12/28 05:18:24;;;;;;;23.70;9.00;;;;;;;-3.71;72.38;98520.96;102989;1325;106162;-69
2021/12/28 05:20:51;;;;;;;24.00;9.80;;;;;;;-3.72;72.37;98516.64;103047;1323;99334;-70
2021/12/28 05:23:19;;;;;;;26.50;10.60;;;;;;;-3.72;72.55;98513.88;102934;1313;99025;-69
2021/12/28 05:25:47;;;;;;;21.80;9.80;;;;;;;-3.76;72.44;98515.52;102954;1322;112883;-68
2021/12/28 05:28:15;;;;;;;22.20;9.50;;;;;;;-3.76;72.56;98513.27;103031;1316;99274;-69
2021/12/28 05:30:43;;;;;;;23.10;9.90;;;;;;;-3.70;72.49;98513.14;102918;1322;107985;-68
2021/12/28 05:33:12;;;;;;;21.50;9.60;;;;;;;-3.64;72.57;98514.73;102972;1317;97962;-69
2021/12/28 05:35:39;;;;;;;19.50;8.60;;;;;;;-3.58;72.57;98516.85;102796;1318;99454;-70
2021/12/28 05:38:07;;;;;;;21.00;8.70;;;;;;;-3.64;72.52;98516.45;102938;1318;111970;-68
2021/12/28 05:40:35;;;;;;;22.40;9.30;;;;;;;-3.67;72.50;98522.23;103045;1317;96617;-70
2021/12/28 05:43:03;;;;;;;20.60;8.50;;;;;;;-3.65;72.43;98519.95;103071;1322;108474;-69
2021/12/28 05:45:32;;;;;;;22.90;9.10;;;;;;;-3.68;72.49;98525.05;103051;1317;99332;-69
2021/12/28 05:48:01;;;;;;;21.20;8.10;;;;;;;-3.77;72.26;98526.64;103074;1317;100566;-68
2021/12/28 05:50:29;;;;;;;22.00;10.50;;;;;;;-3.84;72.41;98525.23;102990;1319;112907;-70
2021/12/28 05:52:57;;;;;;;21.10;8.80;;;;;;;-3.84;72.57;98527.48;102990;1318;96554;-71
2021/12/28 05:55:25;;;;;;;22.50;9.60;;;;;;;-3.80;72.36;98528.09;103078;1316;107831;-69
2021/12/28 05:57:53;;;;;;;23.20;9.50;;;;;;;-3.73;72.66;98523.41;103089;1322;98404;-72
2021/12/28 06:00:21;;;;;;;23.90;10.20;;;;;;;-3.67;72.44;98521.73;103042;1316;96681;-77
2021/12/28 06:02:49;;;;;;;23.70;10.10;;;;;;;-3.67;72.44;98517.92;103107;1319;112525;-71
2021/12/28 06:05:18;;;;;;;24.50;11.40;;;;;;;-3.60;72.95;98515.33;103056;1319;99352;-72
2021/12/28 06:07:46;;;;;;;22.00;8.90;;;;;;;-3.48;72.76;98516.23;103030;1317;107844;-73
2021/12/28 06:10:14;;;;;;;22.00;9.70;;;;;;;-3.43;72.83;98519.07;103008;1322;99229;-73
2021/12/28 06:12:44;;;;;;;25.30;10.90;;;;;;;-3.41;72.76;98523.02;102987;1316;97336;-73
2021/12/28 06:15:13;;;;;;;25.30;10.00;;;;;;;-3.40;72.74;98526.09;103065;1316;112802;-73
2021/12/28 06:17:42;;;;;;;24.40;10.90;;;;;;;-3.41;72.63;98522.15;103043;1316;99322;-73
2021/12/28 06:20:11;;;;;;;25.70;10.80;;;;;;;-3.47;72.43;98522.98;103085;1320;109012;-73
2021/12/28 06:22:40;;;;;;;25.00;10.70;;;;;;;-3.49;72.58;98520.77;102931;1324;99262;-73
2021/12/28 06:25:12;;;;;;;21.80;9.70;;;;;;;-3.48;72.54;98521.98;103102;1317;98941;-76
2021/12/28 06:27:40;;;;;;;22.70;9.80;;;;;;;-3.51;72.43;98523.23;103007;1316;111219;-74
2021/12/28 06:30:09;;;;;;;20.60;8.20;;;;;;;-3.68;72.15;98527.11;102939;1318;99306;-72
2021/12/28 06:32:37;;;;;;;23.00;8.70;;;;;;;-3.83;71.98;98531.10;102954;1320;109127;-73
2021/12/28 06:35:06;;;;;;;22.30;9.50;;;;;;;-3.92;72.13;98535.14;102887;1316;98028;-73
2021/12/28 06:37:34;;;;;;;22.60;9.40;;;;;;;-3.97;72.07;98539.90;103604;1317;97372;-73
2021/12/28 06:40:05;;;;;;;23.50;9.40;;;;;;;-3.96;72.28;98543.00;102909;1317;112888;-74
2021/12/28 06:42:33;;;;;;;24.10;9.90;;;;;;;-4.02;72.14;98546.09;102972;1317;99927;-73
2021/12/28 06:45:03;;;;;;;25.50;11.10;;;;;;;-4.02;72.29;98549.36;103068;1317;107768;-73
2021/12/28 06:47:31;;;;;;;24.90;11.10;;;;;;;-3.97;72.44;98552.38;103087;1316;99338;-73
2021/12/28 06:49:59;;;;;;;24.70;10.70;;;;;;;-3.90;72.52;98551.02;103111;1320;99473;-76
2021/12/28 06:52:27;;;;;;;23.90;10.50;;;;;;;-3.88;72.52;98550.96;103038;1318;112754;-73
2021/12/28 06:54:55;;;;;;;23.70;11.00;;;;;;;-3.88;72.44;98551.14;103079;1316;96697;-74
2021/12/28 06:57:23;;;;;;;24.00;9.90;;;;;;;-3.89;72.39;98551.86;103103;1320;107838;-72
2021/12/28 06:59:51;;;;;;;24.30;10.50;;;;;;;-3.96;72.18;98544.56;103065;1322;96615;-74
2021/12/28 07:02:19;;;;;;;24.40;10.50;;;;;;;-4.04;72.07;98548.88;103055;1319;99233;-73
2021/12/28 07:04:48;;;;;;;23.20;10.10;;;;;;;-4.01;72.31;98548.65;103094;1316;112947;-74
2021/12/28 07:07:15;;;;;;;26.00;9.30;;;;;;;-3.99;72.31;98543.77;103074;1319;99295;-74
2021/12/28 07:09:44;;;;;;;23.00;9.80;;;;;;;-3.97;72.35;98543.55;103041;1324;107823;-73
2021/12/28 07:12:12;;;;;;;23.80;10.50;;;;;;;-4.00;72.33;98543.42;103057;1321;96674;-73
2021/12/28 07:14:40;;;;;;;25.20;10.30;;;;;;;-3.96;72.33;98548.02;103146;1316;96554;-74
2021/12/28 07:17:08;;;;;;;23.50;10.50;;;;;;;-4.02;72.11;98550.75;103104;1317;112881;-73
2021/12/28 07:19:36;;;;;;;21.70;10.00;;;;;;;-4.12;71.99;98549.59;103085;1317;99410;-73
2021/12/28 07:22:04;;;;;;;25.30;10.00;;;;;;;-4.19;72.00;98548.00;103079;1316;107673;-73
2021/12/28 07:24:32;;;;;;;23.20;9.90;;;;;;;-4.27;72.12;98553.00;103071;1319;97312;-73
2021/12/28 07:27:00;;;;;;;24.80;11.10;;;;;;;-4.30;72.15;98559.66;103086;1316;99356;-72
2021/12/28 07:29:28;;;;;;;26.40;12.40;;;;;;;-4.29;72.26;98562.39;103106;1322;112653;-74
2021/12/28 07:31:57;;;;;;;23.00;10.50;;;;;;;-4.22;72.38;98562.80;103081;1322;99251;-73
2021/12/28 07:34:24;;;;;;;26.70;11.00;;;;;;;-4.14;72.46;98556.55;103071;1317;107916;-73
2021/12/28 07:36:52;;;;;;;23.30;9.90;;;;;;;-4.04;72.40;98557.02;103101;1320;99279;-73
2021/12/28 07:39:20;;;;;;;24.00;9.50;;;;;;;-4.02;72.32;98562.88;103124;1316;99211;-73
2021/12/28 07:41:49;;;;;;;25.50;10.80;;;;;;;-4.08;72.26;98563.52;103094;1317;112830;-74
2021/12/28 07:44:23;;;;;;;;;;;;;;;-4.13;72.02;98568.14;103098;1317;99298;-74
2021/12/28 07:46:51;;;;;;;21.60;9.80;;;;;;;-4.21;72.10;98572.28;103063;1314;108806;-74
2021/12/28 07:49:19;;;;;;;26.80;10.40;;;;;;;-4.30;72.19;98575.92;103097;1316;98387;-74
2021/12/28 07:51:49;;;;;;;25.30;9.90;;;;;;;-4.37;72.08;98575.38;103082;1315;96648;-74
2021/12/28 07:54:17;;;;;;;26.00;10.80;;;;;;;-4.39;72.10;98570.56;103103;1317;112960;-74
2021/12/28 07:56:45;;;;;;;26.70;12.00;;;;;;;-4.42;72.11;98563.88;103055;1316;100965;-74
2021/12/28 07:59:14;;;;;;;28.90;12.30;;;;;;;-4.36;72.15;98560.66;103022;1323;107920;-74
2021/12/28 08:01:43;;;;;;;24.20;10.60;;;;;;;-4.27;72.39;98555.42;103031;1315;99282;-74
2021/12/28 08:04:12;;;;;;;26.70;11.90;;;;;;;-4.11;72.38;98556.31;102973;1319;99281;-74
2021/12/28 08:06:40;;;;;;;23.80;9.50;;;;;;;-3.96;72.65;98552.02;103066;1321;112856;-74
2021/12/28 08:09:07;;;;;;;26.50;12.00;;;;;;;-3.90;72.38;98551.20;103108;1316;99295;-76
2021/12/28 08:11:36;;;;;;;27.30;12.80;;;;;;;-3.98;72.22;98553.61;103091;1323;107699;-73
2021/12/28 08:14:05;;;;;;;26.80;12.60;;;;;;;-3.89;72.53;98549.59;103100;1316;96919;-75
2021/12/28 08:16:33;;;;;;;25.40;11.40;;;;;;;-3.83;72.27;98546.34;103109;1316;99252;-75
2021/12/28 08:19:02;;;;;;;27.00;11.90;;;;;;;-3.80;72.53;98544.90;103118;1316;112596;-75
2021/12/28 08:21:51;;;;;;;30.60;13.00;;;;;;;-3.77;72.51;98542.58;103110;1319;99272;-75
2021/12/28 08:24:18;;;;;;;31.20;13.70;;;;;;;-3.74;72.63;98545.63;103077;1316;107836;-74
2021/12/28 08:26:47;;;;;;;27.40;11.70;;;;;;;-3.68;72.61;98547.92;103058;1316;96672;-72
2021/12/28 08:29:15;;;;;;;28.40;12.20;;;;;;;-3.66;72.46;98553.92;102800;1321;99254;-74
2021/12/28 08:31:47;;;;;;;28.00;12.60;;;;;;;-3.68;72.45;98555.73;103075;1319;113021;-73
2021/12/28 08:34:14;;;;;;;29.00;12.60;;;;;;;-3.63;72.31;98556.81;103095;1317;99279;-73
2021/12/28 08:36:42;;;;;;;24.90;10.40;;;;;;;-3.57;72.47;98559.28;103069;1316;108580;-73
2021/12/28 08:39:10;;;;;;;24.90;11.20;;;;;;;-3.59;72.33;98565.03;103078;1315;99351;-74
2021/12/28 08:41:38;;;;;;;25.00;11.20;;;;;;;-3.62;72.51;98565.46;103091;1316;99284;-73
2021/12/28 08:44:06;;;;;;;26.10;10.90;;;;;;;-3.61;72.58;98568.36;103111;1316;112883;-72
2021/12/28 08:46:34;;;;;;;25.70;12.80;;;;;;;-3.61;72.33;98567.33;103081;1316;99138;-73
2021/12/28 08:49:02;;;;;;;25.40;11.20;;;;;;;-3.66;72.30;98563.66;103091;1316;107918;-73
2021/12/28 08:51:32;;;;;;;28.10;12.80;;;;;;;-3.71;72.33;98564.83;103064;1322;99358;-73
2021/12/28 08:54:00;;;;;;;32.20;14.50;;;;;;;-3.70;72.38;98564.59;103111;1316;99239;-74
2021/12/28 08:56:28;;;;;;;31.70;13.60;;;;;;;-3.61;72.56;98566.98;103089;1317;111962;-73
2021/12/28 08:58:56;;;;;;;27.80;11.80;;;;;;;-3.57;72.61;98564.65;103083;1315;99319;-73
2021/12/28 09:01:23;;;;;;;30.20;14.20;;;;;;;-3.48;72.75;98567.38;102993;1322;106177;-73
2021/12/28 09:03:52;;;;;;;27.40;12.80;;;;;;;-3.36;72.44;98569.52;103093;1316;99262;-74
2021/12/28 09:06:22;;;;;;;30.10;13.60;;;;;;;-3.23;72.66;98568.34;103098;1316;98095;-73
2021/12/28 09:08:51;;;;;;;27.70;13.20;;;;;;;-3.16;72.84;98569.73;103078;1316;112800;-73
2021/12/28 09:11:20;;;;;;;28.90;11.70;;;;;;;-3.07;72.44;98567.98;103065;1316;100400;-74
2021/12/28 09:13:48;;;;;;;29.10;13.90;;;;;;;-3.10;72.51;98562.66;102891;1319;107897;-74
2021/12/28 09:16:19;;;;;;;30.40;14.10;;;;;;;-3.15;72.36;98554.10;103000;1319;99349;-75
2021/12/28 09:18:49;;;;;;;31.80;15.30;;;;;;;-3.07;72.52;98542.80;102972;1319;99281;-77
2021/12/28 09:21:17;;;;;;;26.60;12.00;;;;;;;-2.95;72.62;98538.16;103093;1316;112973;-74
2021/12/28 09:23:44;;;;;;;30.80;13.30;;;;;;;-3.01;71.97;98540.73;102995;1319;99288;-74
2021/12/28 09:26:35;;;;;;;28.30;13.00;;;;;;;-3.18;72.09;98536.30;103083;1322;107845;-75
2021/12/28 09:29:03;;;;;;;28.00;11.90;;;;;;;-3.25;71.93;98536.30;103035;1318;99355;-74
2021/12/28 09:31:33;;;;;;;25.60;11.50;;;;;;;-3.35;71.99;98529.81;103028;1319;99235;-74
2021/12/28 09:34:03;;;;;;;26.40;12.40;;;;;;;-3.36;72.27;98527.91;103075;1320;113058;-74
2021/12/28 09:36:51;;;;;;;27.90;12.60;;;;;;;-3.25;72.33;98526.62;103098;1316;99326;-73
2021/12/28 09:39:22;;;;;;;28.20;13.10;;;;;;;-3.20;72.06;98526.98;103109;1316;107841;-73
2021/12/28 09:41:55;;;;;;;30.60;14.30;;;;;;;-3.20;71.98;98521.96;103014;1317;99341;-74
2021/12/28 09:44:23;;;;;;;28.80;14.40;;;;;;;-3.29;71.68;98520.80;103129;1322;97258;-74
2021/12/28 09:46:52;;;;;;;29.80;13.50;;;;;;;-3.32;72.30;98514.99;103084;1323;112854;-73
2021/12/28 09:49:23;;;;;;;27.10;12.50;;;;;;;-3.26;72.25;98513.81;103074;1316;98863;-74
2021/12/28 09:51:53;;;;;;;27.30;12.10;;;;;;;-3.19;72.24;98512.24;103077;1319;107846;-74
2021/12/28 09:54:30;;;;;;;27.50;14.10;;;;;;;-3.19;72.20;98511.19;102995;1319;100049;-74
2021/12/28 09:57:00;;;;;;;27.30;12.60;;;;;;;-3.22;71.93;98515.41;103135;1317;99293;-73
2021/12/28 09:59:31;;;;;;;29.40;13.40;;;;;;;-3.30;71.97;98515.12;103044;1322;112956;-74
2021/12/28 10:02:06;;;;;;;27.50;11.90;;;;;;;-3.25;72.25;98518.46;103139;1316;99317;-73
2021/12/28 10:04:56;;;;;;;29.60;14.20;;;;;;;-3.27;71.92;98524.40;103124;1319;107893;-74
2021/12/28 10:07:32;;;;;;;30.10;13.90;;;;;;;-3.37;72.08;98531.41;103054;1318;99356;-73
2021/12/28 10:10:00;;;;;;;27.70;11.90;;;;;;;-3.30;72.19;98531.93;103099;1319;99388;-73
2021/12/28 10:12:38;;;;;;;27.40;11.70;;;;;;;-3.24;71.99;98535.42;102841;1318;113866;-74
2021/12/28 10:15:16;;;;;;;27.30;12.10;;;;;;;-3.26;71.97;98535.30;103082;1316;99256;-73
2021/12/28 10:17:49;;;;;;;29.60;13.70;;;;;;;-3.35;71.68;98536.89;103005;1316;107916;-75
2021/12/28 10:20:22;;;;;;;23.80;10.10;;;;;;;-3.47;71.75;98532.19;102992;1316;99510;-74
2021/12/28 10:23:06;;;;;;;32.20;14.00;;;;;;;-3.50;72.09;98526.70;103066;1316;98022;-73
2021/12/28 10:25:41;;;;;;;32.60;15.10;;;;;;;-3.45;72.31;98517.73;103051;1316;112871;-74
2021/12/28 10:28:15;;;;;;;30.30;13.20;;;;;;;-3.30;72.16;98516.48;103079;1316;99142;-74
2021/12/28 10:30:53;;;;;;;31.10;14.20;;;;;;;-3.22;71.94;98516.83;103018;1316;105473;-74
2021/12/28 10:33:25;;;;;;;30.90;14.70;;;;;;;-3.00;72.59;98512.77;103056;1316;99244;-74
2021/12/28 10:36:00;;;;;;;29.80;13.90;;;;;;;-2.66;72.88;98505.61;103056;1316;99256;-71
2021/12/28 10:38:33;;;;;;;30.10;13.90;;;;;;;-2.33;72.80;98495.48;103059;1316;111881;-74
2021/12/28 10:41:11;;;;;;;28.80;13.80;;;;;;;-2.11;72.68;98490.16;103090;1316;99356;-75
2021/12/28 10:43:45;;;;;;;29.60;14.00;;;;;;;-2.00;72.54;98491.35;103020;1317;108581;-73
2021/12/28 10:46:25;;;;;;;29.30;14.20;;;;;;;-1.90;72.42;98490.21;103109;1317;99227;-73
2021/12/28 10:48:56;;;;;;;29.30;14.20;;;;;;;-1.82;72.24;98483.70;99459;1316;5044592;-72
2021/12/28 10:51:31;;;;;;;33.10;19.50;;;;;;;-1.68;72.48;98479.94;102720;1319;112852;-74
2021/12/28 10:56:41;;;;;;;30.80;14.90;;;;;;;-1.31;72.29;98470.23;103068;1317;107892;-72
2021/12/28 10:59:10;;;;;;;31.40;15.80;;;;;;;-1.43;71.51;98464.88;102992;1318;96654;-71
2021/12/28 11:01:42;;;;;;;32.80;17.50;;;;;;;-1.58;71.71;98466.77;103160;1316;99349;-70
2021/12/28 11:04:14;;;;;;;32.90;16.90;;;;;;;-1.52;71.87;98467.96;103005;1316;112916;-74
2021/12/28 11:06:45;;;;;;;31.60;14.80;;;;;;;-1.39;72.03;98461.10;102954;1319;99288;-74
2021/12/28 11:09:19;;;;;;;28.30;13.80;;;;;;;-1.26;71.97;98454.05;103095;1316;105726;-73
2021/12/28 11:11:53;;;;;;;29.70;14.00;;;;;;;-1.03;72.30;98460.92;102968;1319;99313;-74
2021/12/28 11:14:27;;;;;;;30.20;14.40;;;;;;;-0.80;72.39;98465.67;103094;1317;99259;-75
2021/12/28 11:17:01;;;;;;;30.80;14.90;;;;;;;-0.60;72.38;98471.91;103061;1316;112863;-74
2021/12/28 11:19:35;;;;;;;30.80;15.00;;;;;;;-0.67;71.25;98470.60;103058;1316;99242;-72
2021/12/28 11:22:11;;;;;;;27.40;14.20;;;;;;;-0.97;71.31;98469.92;102927;1322;107468;-74
2021/12/28 11:24:45;;;;;;;29.40;14.10;;;;;;;-1.06;71.43;98472.70;103033;1316;99353;-73
2021/12/28 11:27:27;;;;;;;31.30;14.50;;;;;;;-1.17;71.41;98465.92;102961;1318;99371;-73
2021/12/28 11:30:11;;;;;;;31.10;14.60;;;;;;;-1.25;71.43;98462.02;103003;1322;112850;-72